createdAt,value
2019-05-06T00:03:43.559Z,51.74
2019-05-06T00:07:54.351Z,46.12
2019-05-06T00:11:59.671Z,50.53
2019-05-06T00:16:05.575Z,53.48
2019-05-06T00:20:18.343Z,51.21
2019-05-06T00:24:26.091Z,55.04
2019-05-06T00:28:36.178Z,49.95
2019-05-06T00:32:44.189Z,52.47
2019-05-06T00:36:49.245Z,51.44
2019-05-06T00:41:05.400Z,50.19
2019-05-06T00:45:13.554Z,54.49
2019-05-06T00:49:18.733Z,47.80
2019-05-06T00:53:35.052Z,50.72
2019-05-06T00:57:44.188Z,52.24
2019-05-06T01:01:50.143Z,54.54
2019-05-06T01:05:56.008Z,49.53
2019-05-06T01:10:03.679Z,54.00
2019-05-06T01:14:16.688Z,53.82
2019-05-06T01:18:24.375Z,51.06
2019-05-06T01:22:29.989Z,51.19
2019-05-06T01:26:35.668Z,52.20
2019-05-06T01:30:41.432Z,52.74
2019-05-06T01:34:47.092Z,52.73
2019-05-06T01:38:57.246Z,50.75
2019-05-06T01:43:04.570Z,53.38
2019-05-06T01:47:10.289Z,53.09
2019-05-06T01:51:18.456Z,52.94
2019-05-06T01:55:24.146Z,51.15
2019-05-06T01:59:29.898Z,54.18
2019-05-06T02:03:35.756Z,53.61
2019-05-06T02:07:41.462Z,53.15
2019-05-06T02:11:48.025Z,54.23
2019-05-06T02:15:54.743Z,54.57
2019-05-06T02:20:00.463Z,56.68
2019-05-06T02:24:17.627Z,49.96
2019-05-06T02:28:23.622Z,50.42
2019-05-06T02:32:31.386Z,53.82
2019-05-06T02:36:40.869Z,53.59
2019-05-06T02:40:46.552Z,54.16
2019-05-06T02:44:53.961Z,50.10
2019-05-06T02:49:07.373Z,50.83
2019-05-06T02:53:13.843Z,49.51
2019-05-06T02:57:19.531Z,50.13
2019-05-06T03:01:25.210Z,49.09
2019-05-06T03:05:33.288Z,50.23
2019-05-06T03:09:38.350Z,52.55
2019-05-06T03:13:44.232Z,50.90
2019-05-06T03:17:49.914Z,50.32
2019-05-06T03:22:03.157Z,52.53
2019-05-06T03:26:07.379Z,51.82
2019-05-06T03:30:16.601Z,57.99
2019-05-06T03:34:38.340Z,53.08
2019-05-06T03:38:28.188Z,51.47
2019-05-06T03:42:33.855Z,57.75
2019-05-06T03:46:53.738Z,51.43
2019-05-06T03:50:58.251Z,51.43
2019-05-06T03:55:04.486Z,54.42
2019-05-06T03:59:13.313Z,53.47
2019-05-06T04:03:19.079Z,53.70
2019-05-06T04:07:25.368Z,53.98
2019-05-06T04:11:35.833Z,51.25
2019-05-06T04:15:56.383Z,53.38
2019-05-06T04:20:13.285Z,51.76
2019-05-06T04:24:19.339Z,52.11
2019-05-06T04:28:29.623Z,52.22
2019-05-06T04:32:35.480Z,51.72
2019-05-06T04:36:43.971Z,54.39
2019-05-06T04:40:48.921Z,51.34
2019-05-06T04:44:54.664Z,52.13
2019-05-06T04:49:04.053Z,52.98
2019-05-06T04:53:09.396Z,54.99
2019-05-06T04:57:15.241Z,54.74
2019-05-06T05:01:23.160Z,53.64
2019-05-06T05:05:29.315Z,53.34
2019-05-06T05:09:35.003Z,54.63
2019-05-06T05:13:45.130Z,56.03
2019-05-06T05:17:58.991Z,57.14
2019-05-06T05:22:07.582Z,58.12
2019-05-06T05:26:13.285Z,57.10
2019-05-06T05:30:19.000Z,52.77
2019-05-06T05:34:37.138Z,53.58
2019-05-06T05:38:32.325Z,51.00
2019-05-06T05:42:39.711Z,52.00
2019-05-06T05:46:45.393Z,52.67
2019-05-06T05:50:52.493Z,52.30
2019-05-06T05:54:58.498Z,52.11
2019-05-06T05:59:04.305Z,52.05
2019-05-06T06:03:12.497Z,52.01
2019-05-06T06:07:17.843Z,52.20
2019-05-06T06:11:32.809Z,51.88
2019-05-06T06:15:38.494Z,52.87
2019-05-06T06:19:48.991Z,52.67
2019-05-06T06:24:06.149Z,53.60
2019-05-06T06:28:12.979Z,52.75
2019-05-06T06:32:22.847Z,56.91
2019-05-06T06:36:35.486Z,52.43
2019-05-06T06:40:42.558Z,50.31
2019-05-06T06:44:48.293Z,53.72
2019-05-06T06:48:54.120Z,50.50
2019-05-06T06:52:59.867Z,51.15
2019-05-06T06:57:25.516Z,51.50
2019-05-06T07:01:42.769Z,54.33
2019-05-06T07:05:52.834Z,51.32
2019-05-06T07:09:59.462Z,51.23
2019-05-06T07:14:05.294Z,48.85
2019-05-06T07:18:13.317Z,51.63
2019-05-06T07:22:18.495Z,51.82
2019-05-06T07:26:25.890Z,51.76
2019-05-06T07:30:33.221Z,48.74
2019-05-06T07:34:38.983Z,49.37
2019-05-06T07:38:52.644Z,54.36
2019-05-06T07:43:02.153Z,53.67
2019-05-06T07:47:09.059Z,52.42
2019-05-06T07:51:14.759Z,52.31
2019-05-06T07:55:20.432Z,50.45
2019-05-06T07:59:26.120Z,50.66
2019-05-06T08:03:32.934Z,55.92
2019-05-06T08:07:42.128Z,53.07
2019-05-06T08:11:47.553Z,51.50
2019-05-06T08:15:53.804Z,54.15
2019-05-06T08:19:59.514Z,53.83
2019-05-06T08:24:05.619Z,53.38
2019-05-06T08:28:13.285Z,50.92
2019-05-06T08:32:18.873Z,50.01
2019-05-06T08:36:26.250Z,51.55
2019-05-06T08:40:32.256Z,48.54
2019-05-06T08:44:37.934Z,51.21
2019-05-06T08:48:43.678Z,48.40
2019-05-06T08:52:58.133Z,48.46
2019-05-06T08:57:03.868Z,50.84
2019-05-06T09:01:12.437Z,51.95
2019-05-06T09:05:18.161Z,50.94
2019-05-06T09:09:23.866Z,50.06
2019-05-06T09:13:29.536Z,51.59
2019-05-06T09:17:35.272Z,47.98
2019-05-06T09:21:45.830Z,51.42
2019-05-06T09:25:48.479Z,50.33
2019-05-06T09:29:54.736Z,51.43
2019-05-06T09:34:17.943Z,52.56
2019-05-06T09:38:23.631Z,50.20
2019-05-06T09:42:29.308Z,47.22
2019-05-06T09:46:35.078Z,44.59
2019-05-06T09:50:45.974Z,46.06
2019-05-06T09:54:55.051Z,47.47
2019-05-06T09:59:02.188Z,41.53
2019-05-06T10:03:09.204Z,40.29
2019-05-06T10:07:14.966Z,41.74
2019-05-06T10:11:22.326Z,37.00
2019-05-06T10:15:28.303Z,37.20
2019-05-06T10:19:34.032Z,28.96
2019-05-06T10:23:42.155Z,30.41
2019-05-06T10:27:48.816Z,27.23
2019-05-06T10:32:02.150Z,28.66
2019-05-06T10:36:08.301Z,29.27
2019-05-06T10:40:27.330Z,26.65
2019-05-06T10:44:42.837Z,24.53
2019-05-06T10:48:48.004Z,23.15
2019-05-06T10:53:05.562Z,23.53
2019-05-06T10:57:12.552Z,23.25
2019-05-06T11:01:23.138Z,28.49
2019-05-06T11:05:28.335Z,26.99
2019-05-06T11:09:34.088Z,24.29
2019-05-06T11:13:39.758Z,25.72
2019-05-06T11:17:45.457Z,24.49
2019-05-06T11:21:53.084Z,24.65
2019-05-06T11:25:58.655Z,24.86
2019-05-06T11:30:07.389Z,24.05
2019-05-06T11:34:14.792Z,24.28
2019-05-06T11:38:22.761Z,23.83
2019-05-06T11:42:32.554Z,32.87
2019-05-06T11:46:36.314Z,33.31
2019-05-06T11:50:43.674Z,35.85
2019-05-06T11:54:49.374Z,36.80
2019-05-06T11:58:56.709Z,37.34
2019-05-06T12:03:02.500Z,41.53
2019-05-06T12:07:11.166Z,42.18
2019-05-06T12:11:15.572Z,41.92
2019-05-06T12:15:23.016Z,43.58
2019-05-06T12:19:29.761Z,41.05
2019-05-06T12:23:35.825Z,40.97
2019-05-06T12:27:44.419Z,40.92
2019-05-06T12:31:52.926Z,37.38
2019-05-06T12:36:02.577Z,36.16
2019-05-06T12:40:08.562Z,38.15
2019-05-06T12:44:14.256Z,34.40
2019-05-06T12:48:37.630Z,31.87
2019-05-06T12:52:44.095Z,30.50
2019-05-06T12:56:51.895Z,24.90
2019-05-06T13:00:59.136Z,25.70
2019-05-06T13:05:08.039Z,25.80
2019-05-06T13:09:13.739Z,27.28
2019-05-06T13:13:19.490Z,27.11
2019-05-06T13:17:26.993Z,33.44
2019-05-06T13:21:32.892Z,30.46
2019-05-06T13:25:42.192Z,29.08
2019-05-06T13:29:46.161Z,26.14
2019-05-06T13:33:54.789Z,28.65
2019-05-06T13:38:00.705Z,32.37
2019-05-06T13:42:14.404Z,32.90
2019-05-06T13:46:33.819Z,27.51
2019-05-06T13:50:43.819Z,28.52
2019-05-06T13:54:49.544Z,35.37
2019-05-06T13:58:55.407Z,36.81
2019-05-06T14:03:02.220Z,37.85
2019-05-06T14:07:07.989Z,34.91
2019-05-06T14:11:13.657Z,32.66
2019-05-06T14:15:19.579Z,33.51
2019-05-06T14:19:25.273Z,34.69
2019-05-06T14:23:32.712Z,33.61
2019-05-06T14:27:38.425Z,34.64
2019-05-06T14:31:45.732Z,34.28
2019-05-06T14:35:52.641Z,30.89
2019-05-06T14:40:00.051Z,29.55
2019-05-06T14:44:09.135Z,30.39
2019-05-06T14:48:13.249Z,34.60
2019-05-06T14:52:18.951Z,31.85
2019-05-06T14:56:28.714Z,38.11
2019-05-06T15:00:34.410Z,37.75
2019-05-06T15:04:40.094Z,41.36
2019-05-06T15:08:45.793Z,34.45
2019-05-06T15:12:53.466Z,36.22
2019-05-06T15:16:58.926Z,35.23
2019-05-06T15:21:29.275Z,34.12
2019-05-06T15:25:13.074Z,32.92
2019-05-06T15:29:19.716Z,34.28
2019-05-06T15:33:27.056Z,35.35
2019-05-06T15:37:34.386Z,37.51
2019-05-06T15:41:40.194Z,33.41
2019-05-06T15:45:45.874Z,35.15
2019-05-06T15:49:52.684Z,38.40
2019-05-06T15:53:58.529Z,34.26
2019-05-06T15:58:04.343Z,39.37
2019-05-06T16:02:10.138Z,36.19
2019-05-06T16:06:15.802Z,34.77
2019-05-06T16:10:22.688Z,39.52
2019-05-06T16:14:28.440Z,36.07
2019-05-06T16:18:34.118Z,38.30
2019-05-06T16:22:39.910Z,36.37
2019-05-06T16:26:45.795Z,37.44
2019-05-06T16:30:53.491Z,35.80
2019-05-06T16:34:58.813Z,36.72
2019-05-06T16:39:09.062Z,35.60
2019-05-06T16:43:15.019Z,35.58
2019-05-06T16:47:38.996Z,36.07
2019-05-06T16:51:45.659Z,36.52
2019-05-06T16:55:55.430Z,35.63
2019-05-06T17:00:00.360Z,43.85
2019-05-06T17:04:16.733Z,34.39
2019-05-06T17:08:23.488Z,37.85
2019-05-06T17:12:31.956Z,35.59
2019-05-06T17:16:37.818Z,37.15
2019-05-06T17:20:43.518Z,34.16
2019-05-06T17:24:49.285Z,35.49
2019-05-06T17:28:54.745Z,38.68
2019-05-06T17:33:02.278Z,36.27
2019-05-06T17:37:12.731Z,37.18
2019-05-06T17:41:18.588Z,38.85
2019-05-06T17:45:38.509Z,35.77
2019-05-06T17:49:44.193Z,35.55
2019-05-06T17:53:57.655Z,36.51
2019-05-06T17:58:03.401Z,37.18
2019-05-06T18:02:10.881Z,35.59
2019-05-06T18:06:23.320Z,35.22
2019-05-06T18:10:29.100Z,37.04
2019-05-06T18:14:34.866Z,40.57
2019-05-06T18:18:40.595Z,37.77
2019-05-06T18:22:46.282Z,38.12
2019-05-06T18:26:53.576Z,41.76
2019-05-06T18:30:59.412Z,39.87
2019-05-06T18:35:07.638Z,38.30
2019-05-06T18:39:13.329Z,36.65
2019-05-06T18:43:19.025Z,38.07
2019-05-06T18:47:24.732Z,36.67
2019-05-06T18:51:30.475Z,37.06
2019-05-06T18:55:37.801Z,39.11
2019-05-06T18:59:43.487Z,40.23
2019-05-06T19:04:03.435Z,39.03
2019-05-06T19:08:12.441Z,40.65
2019-05-06T19:12:30.263Z,40.44
2019-05-06T19:16:25.626Z,43.50
2019-05-06T19:20:33.860Z,45.51
2019-05-06T19:24:38.870Z,42.52
2019-05-06T19:28:44.567Z,43.22
2019-05-06T19:32:50.255Z,44.43
2019-05-06T19:37:02.825Z,45.52
2019-05-06T19:41:08.591Z,42.54
2019-05-06T19:45:14.497Z,43.83
2019-05-06T19:49:21.668Z,44.84
2019-05-06T19:53:27.564Z,44.11
2019-05-06T19:57:33.240Z,44.74
2019-05-06T20:01:38.929Z,43.77
2019-05-06T20:05:55.211Z,42.14
2019-05-06T20:10:03.384Z,41.26
2019-05-06T20:14:09.141Z,41.08
2019-05-06T20:18:15.819Z,41.30
2019-05-06T20:22:23.026Z,41.72
2019-05-06T20:26:28.790Z,42.51
2019-05-06T20:30:34.489Z,43.68
2019-05-06T20:34:40.162Z,44.39
2019-05-06T20:38:45.932Z,44.51
2019-05-06T20:42:51.615Z,44.80
2019-05-06T20:46:57.312Z,48.00
2019-05-06T20:51:04.108Z,46.02
2019-05-06T20:55:15.945Z,45.86
2019-05-06T20:59:17.510Z,43.43
2019-05-06T21:03:23.201Z,42.04
2019-05-06T21:07:28.910Z,42.10
2019-05-06T21:11:34.570Z,42.10
2019-05-06T21:15:40.274Z,43.67
2019-05-06T21:19:45.949Z,40.00
2019-05-06T21:23:52.421Z,40.62
2019-05-06T21:27:58.148Z,42.43
2019-05-06T21:32:03.910Z,47.05
2019-05-06T21:36:09.730Z,48.10
2019-05-06T21:40:15.642Z,39.42
2019-05-06T21:44:22.785Z,43.43
2019-05-06T21:48:28.660Z,42.17
2019-05-06T21:52:39.444Z,43.49
2019-05-06T21:56:42.490Z,44.01
2019-05-06T22:01:02.491Z,41.45
2019-05-06T22:05:13.126Z,41.45
2019-05-06T22:09:18.567Z,43.37
2019-05-06T22:13:24.246Z,41.25
2019-05-06T22:17:32.014Z,44.41
2019-05-06T22:21:39.041Z,45.50
2019-05-06T22:25:44.734Z,43.19
2019-05-06T22:29:52.269Z,42.88
2019-05-06T22:33:59.438Z,41.72
2019-05-06T22:38:05.129Z,45.02
2019-05-06T22:42:10.839Z,40.75
2019-05-06T22:46:18.325Z,40.76
2019-05-06T22:50:24.116Z,45.63
2019-05-06T22:54:31.895Z,40.77
2019-05-06T22:58:37.236Z,41.45
2019-05-06T23:02:44.554Z,41.35
2019-05-06T23:06:50.245Z,41.70
2019-05-06T23:10:56.006Z,41.23
2019-05-06T23:15:02.677Z,41.29
2019-05-06T23:19:08.652Z,42.30
2019-05-06T23:23:14.336Z,42.74
2019-05-06T23:27:20.037Z,42.87
2019-05-06T23:31:25.744Z,42.89
2019-05-06T23:35:31.482Z,42.98
2019-05-06T23:40:33.516Z,42.91
2019-05-06T23:45:33.838Z,43.54
2019-05-06T23:50:33.957Z,43.99
2019-05-06T23:55:33.443Z,44.05
2019-05-06T23:59:39.155Z,43.53
